Time;durP1;ratioP1;P1;durP2;ratioP2;P2;SDS_P1;SDS_P2;PMS_P1;PMS_P2;Temp;Humidity;BMP_temperature;BMP_pressure;BME280_temperature;BME280_humidity;BME280_pressure;Samples;Min_cycle;Max_cycle;Signal;HPM_P1;HPM_P2
2023/06/27 00:01:25;;;;;;;1.60;1.60;;;;;;;18.16;100.00;96716.72;5006117;28;20058;-59
2023/06/27 00:03:52;;;;;;;1.60;1.60;;;;;;;18.69;100.00;96772.66;5006662;28;20054;-60
2023/06/27 00:06:22;;;;;;;1.50;1.50;;;;;;;18.23;100.00;96677.31;5006422;28;20426;-59
2023/06/27 00:08:49;;;;;;;1.65;1.65;;;;;;;18.75;100.00;96770.91;5021608;28;20061;-60
2023/06/27 00:11:16;;;;;;;1.50;1.50;;;;;;;18.75;100.00;96764.50;5004763;28;20064;-60
2023/06/27 00:13:44;;;;;;;1.50;1.50;;;;;;;18.78;100.00;96766.47;5006471;28;20061;-59
2023/06/27 00:16:13;;;;;;;1.60;1.60;;;;;;;18.72;100.00;96742.91;5005826;28;20869;-59
2023/06/27 00:18:42;;;;;;;1.70;1.70;;;;;;;18.78;100.00;96770.06;5006297;28;20590;-60
2023/06/27 00:21:08;;;;;;;1.85;1.85;;;;;;;18.43;100.00;96720.22;5020850;28;20060;-60
2023/06/27 00:23:35;;;;;;;2.00;2.00;;;;;;;18.52;100.00;96728.09;5006195;28;20046;-61
2023/06/27 00:26:03;;;;;;;1.48;1.48;;;;;;;18.83;100.00;96772.38;5006395;28;20080;-60
2023/06/27 00:28:30;;;;;;;1.85;1.85;;;;;;;18.80;100.00;96773.22;5004741;28;20053;-60
2023/06/27 00:30:56;;;;;;;1.45;1.45;;;;;;;18.51;100.00;96721.69;4996852;28;20528;-61
2023/06/27 00:33:23;;;;;;;1.85;1.85;;;;;;;18.88;100.00;96774.69;4986559;28;20120;-60
2023/06/27 00:35:50;;;;;;;1.40;1.40;;;;;;;18.58;100.00;96749.59;5008797;28;20142;-61
2023/06/27 00:38:17;;;;;;;1.70;1.70;;;;;;;18.67;100.00;96769.47;5004804;28;20053;-60
2023/06/27 00:40:43;;;;;;;1.67;1.67;;;;;;;18.08;100.00;96698.44;5020852;28;20062;-61
2023/06/27 00:43:10;;;;;;;1.70;1.70;;;;;;;18.12;100.00;96710.38;5006184;28;20057;-61
2023/06/27 00:45:37;;;;;;;1.83;1.83;;;;;;;18.47;100.00;96765.03;5005531;28;20050;-61
2023/06/27 00:48:04;;;;;;;1.90;1.90;;;;;;;18.33;100.00;96760.47;5005367;28;20060;-61
2023/06/27 00:50:31;;;;;;;1.90;1.90;;;;;;;18.31;100.00;96773.31;5005304;28;20084;-60
2023/06/27 00:52:59;;;;;;;1.60;1.60;;;;;;;18.22;100.00;96771.06;5005299;28;20053;-62
2023/06/27 00:55:28;;;;;;;1.40;1.40;;;;;;;17.62;100.00;96692.81;5020682;28;20072;-60
2023/06/27 00:57:55;;;;;;;1.60;1.60;;;;;;;17.89;100.00;96752.41;5005553;28;20046;-61
2023/06/27 01:00:22;;;;;;;1.50;1.50;;;;;;;17.98;100.00;96770.28;5020471;28;20069;-60
2023/06/27 01:02:48;;;;;;;1.60;1.60;;;;;;;18.01;100.00;96766.63;5005309;28;20437;-60
2023/06/27 01:05:17;;;;;;;1.60;1.60;;;;;;;17.97;100.00;96765.09;5005141;28;20399;-60
2023/06/27 01:08:00;;;;;;;1.55;1.55;;;;;;;18.01;100.00;96763.00;5005226;28;20558;-61
2023/06/27 01:10:34;;;;;;;1.55;1.55;;;;;;;17.77;100.00;96741.78;5005649;28;20060;-62
2023/06/27 01:13:10;;;;;;;1.45;1.45;;;;;;;17.93;100.00;96759.53;5004219;28;20100;-60
2023/06/27 01:15:38;;;;;;;1.55;1.55;;;;;;;17.70;100.00;96713.91;5004968;28;20054;-59
2023/06/27 01:18:08;;;;;;;1.52;1.52;;;;;;;17.95;100.00;96756.31;5005526;28;20054;-60
2023/06/27 01:20:36;;;;;;;1.45;1.45;;;;;;;17.87;100.00;96754.84;5004975;28;20527;-61
2023/06/27 01:24:03;;;;;;;1.50;1.50;;;;;;;17.90;100.00;96754.78;5004083;28;20464;-60
2023/06/27 01:26:30;;;;;;;1.35;1.35;;;;;;;17.64;100.00;96713.56;4944159;29;20138;-60
2023/06/27 01:28:57;;;;;;;1.40;1.40;;;;;;;17.96;100.00;96764.28;5005554;28;20124;-60
2023/06/27 01:31:59;;;;;;;1.40;1.40;;;;;;;17.71;100.00;96718.28;5005056;28;20045;-60
2023/06/27 01:34:36;;;;;;;1.50;1.50;;;;;;;17.95;100.00;96759.91;4981706;28;20077;-61
2023/06/27 01:37:19;;;;;;;1.48;1.48;;;;;;;17.47;100.00;96691.44;5019760;28;20054;-62
2023/06/27 01:39:56;;;;;;;1.67;1.67;;;;;;;17.97;100.00;96765.09;5005045;28;20133;-60
2023/06/27 01:42:27;;;;;;;1.70;1.70;;;;;;;18.02;100.00;96758.97;5004510;28;20062;-60
2023/06/27 01:44:55;;;;;;;1.60;1.60;;;;;;;18.16;100.00;96763.56;5004863;28;20503;-61
2023/06/27 01:47:22;;;;;;;1.60;1.60;;;;;;;18.13;100.00;96768.00;5004478;28;20061;-62
2023/06/27 01:49:50;;;;;;;1.60;1.60;;;;;;;18.13;100.00;96759.59;5004980;28;20441;-61
2023/06/27 01:52:18;;;;;;;1.58;1.58;;;;;;;18.22;100.00;96753.44;5019627;28;20244;-60
2023/06/27 01:54:45;;;;;;;1.48;1.48;;;;;;;18.13;100.00;96765.19;5005024;28;20270;-59
2023/06/27 01:57:12;;;;;;;1.50;1.50;;;;;;;18.19;100.00;96766.31;4972685;28;20060;-59
2023/06/27 01:59:39;;;;;;;1.70;1.70;;;;;;;18.21;100.00;96755.44;4620513;28;10001187;-61
2023/06/27 02:02:06;;;;;;;1.50;1.50;;;;;;;18.15;100.00;96748.75;5006597;28;20461;-60
2023/06/27 02:04:33;;;;;;;1.70;1.70;;;;;;;18.11;100.00;96764.84;5004748;28;20054;-61
2023/06/27 02:06:59;;;;;;;1.40;1.40;;;;;;;17.96;100.00;96741.06;5004671;28;20057;-63
2023/06/27 02:09:26;;;;;;;1.35;1.35;;;;;;;17.96;100.00;96747.47;5004346;28;20076;-60
2023/06/27 02:11:53;;;;;;;1.60;1.60;;;;;;;17.85;100.00;96752.47;5004369;28;20073;-60
2023/06/27 02:14:19;;;;;;;1.48;1.48;;;;;;;17.84;100.00;96761.28;5004622;28;20054;-59
2023/06/27 02:16:46;;;;;;;1.40;1.40;;;;;;;17.36;100.00;96710.38;5018922;28;20509;-60
2023/06/27 02:19:13;;;;;;;1.50;1.50;;;;;;;17.67;100.00;96756.78;5004745;28;20435;-59
2023/06/27 02:21:39;;;;;;;1.50;1.50;;;;;;;17.58;100.00;96770.50;5003964;28;20058;-61
2023/06/27 02:24:06;;;;;;;1.40;1.40;;;;;;;17.60;100.00;96768.06;5004213;28;20529;-60
2023/06/27 02:26:33;;;;;;;1.52;1.52;;;;;;;17.47;100.00;96748.25;5004042;28;20553;-60
2023/06/27 02:28:59;;;;;;;1.45;1.45;;;;;;;17.64;100.00;96757.63;5004561;28;20128;-60
2023/06/27 02:31:26;;;;;;;1.35;1.35;;;;;;;17.63;100.00;96761.63;5004221;28;20586;-60
2023/06/27 02:33:53;;;;;;;1.40;1.40;;;;;;;17.69;100.00;96768.31;5004306;28;20057;-59
2023/06/27 02:36:21;;;;;;;1.52;1.52;;;;;;;17.52;100.00;96749.78;5004280;28;20157;-63
2023/06/27 02:38:49;;;;;;;1.50;1.50;;;;;;;17.66;100.00;96771.97;5004726;28;20060;-60
2023/06/27 02:41:16;;;;;;;1.63;1.63;;;;;;;17.50;100.00;96752.19;5003713;28;20651;-60
2023/06/27 02:43:43;;;;;;;1.50;1.50;;;;;;;17.69;100.00;96787.94;5004586;28;20057;-60
2023/06/27 02:46:09;;;;;;;1.50;1.50;;;;;;;17.13;100.00;96710.31;5004110;28;20077;-61
2023/06/27 02:48:36;;;;;;;1.50;1.50;;;;;;;17.20;100.00;96699.03;5002932;28;20619;-59
2023/06/27 02:51:03;;;;;;;1.70;1.70;;;;;;;17.75;100.00;96786.25;5002820;28;20053;-60
2023/06/27 02:53:29;;;;;;;1.60;1.60;;;;;;;17.70;100.00;96789.53;5004455;28;20421;-61
2023/06/27 02:56:02;;;;;;;1.60;1.60;;;;;;;17.24;100.00;96716.56;5003906;28;20064;-60
2023/06/27 02:58:30;;;;;;;1.45;1.45;;;;;;;17.61;100.00;96769.63;5004362;28;20049;-60
2023/06/27 03:01:03;;;;;;;1.48;1.48;;;;;;;17.58;100.00;96759.28;5002684;28;20054;-60
2023/06/27 03:03:29;;;;;;;1.60;1.60;;;;;;;17.72;100.00;96787.88;5004119;28;20075;-60
2023/06/27 03:06:08;;;;;;;1.50;1.50;;;;;;;17.70;100.00;96773.50;5003987;28;20050;-60
2023/06/27 03:08:37;;;;;;;1.48;1.48;;;;;;;17.87;100.00;96788.47;5018729;28;20050;-60
2023/06/27 03:11:05;;;;;;;1.55;1.55;;;;;;;17.74;100.00;96773.44;5003704;28;20061;-60
2023/06/27 03:13:31;;;;;;;1.40;1.40;;;;;;;17.37;100.00;96720.38;5003722;28;20563;-59
2023/06/27 03:15:58;;;;;;;1.70;1.70;;;;;;;17.58;100.00;96759.28;5003777;28;20054;-60
2023/06/27 03:18:25;;;;;;;1.50;1.50;;;;;;;17.69;100.00;96776.72;5001961;28;20045;-61
2023/06/27 03:20:51;;;;;;;1.48;1.48;;;;;;;17.58;100.00;96764.88;5003496;28;20558;-60
2023/06/27 03:23:18;;;;;;;1.48;1.48;;;;;;;17.70;100.00;96789.53;5007065;28;20132;-62
2023/06/27 03:25:45;;;;;;;1.55;1.55;;;;;;;17.09;100.00;96689.97;4993476;28;20054;-60
2023/06/27 03:28:11;;;;;;;1.33;1.33;;;;;;;17.64;100.00;96760.41;4987550;28;20058;-59
2023/06/27 03:30:43;;;;;;;1.40;1.40;;;;;;;17.24;100.00;96682.97;4982144;28;20067;-59
2023/06/27 03:33:10;;;;;;;1.50;1.50;;;;;;;17.99;100.00;96785.88;5007136;28;20109;-62
2023/06/27 03:35:37;;;;;;;1.52;1.52;;;;;;;18.11;100.00;96787.28;5007044;28;20196;-62
2023/06/27 03:38:04;;;;;;;1.60;1.60;;;;;;;18.13;100.00;96788.44;5021670;28;20058;-61
2023/06/27 03:40:31;;;;;;;1.40;1.40;;;;;;;18.07;100.00;96797.75;5006623;28;20057;-63
2023/06/27 03:42:58;;;;;;;1.60;1.60;;;;;;;18.18;100.00;96795.56;5005239;28;20065;-60
2023/06/27 03:45:24;;;;;;;1.50;1.50;;;;;;;17.73;98.86;96704.63;5006856;28;20070;-60
2023/06/27 03:47:51;;;;;;;1.60;1.60;;;;;;;18.24;97.20;96802.25;5006249;28;20050;-60
2023/06/27 03:50:18;;;;;;;1.58;1.58;;;;;;;17.59;97.72;96699.28;5022266;28;20137;-60
2023/06/27 03:52:45;;;;;;;1.75;1.75;;;;;;;18.27;98.20;96801.44;4995592;28;20145;-61
2023/06/27 03:55:11;;;;;;;1.50;1.50;;;;;;;18.30;98.38;96803.38;4987585;28;20161;-60
2023/06/27 03:57:38;;;;;;;1.60;1.60;;;;;;;18.14;99.03;96820.06;4987138;28;20050;-60
2023/06/27 04:00:07;;;;;;;1.60;1.60;;;;;;;17.89;99.02;96763.63;4986935;28;20130;-60
2023/06/27 04:02:34;;;;;;;1.75;1.75;;;;;;;17.91;99.75;96772.38;4987368;28;20912;-60
2023/06/27 04:05:00;;;;;;;1.50;1.50;;;;;;;18.41;99.68;96800.41;4987247;28;20058;-61
2023/06/27 04:07:27;;;;;;;1.73;1.73;;;;;;;18.60;98.41;96800.47;4986447;28;20529;-60
2023/06/27 04:09:54;;;;;;;1.58;1.58;;;;;;;18.76;96.45;96800.56;4987120;28;20050;-62
2023/06/27 04:12:21;;;;;;;1.75;1.75;;;;;;;18.59;95.71;96787.66;4986405;28;20423;-60
2023/06/27 04:14:48;;;;;;;1.60;1.60;;;;;;;18.75;95.64;96803.78;4985565;28;20054;-60
2023/06/27 04:17:14;;;;;;;1.50;1.50;;;;;;;18.81;96.62;96808.47;4986554;28;20050;-61
2023/06/27 04:19:41;;;;;;;1.85;1.85;;;;;;;18.82;95.64;96768.00;4986878;28;20054;-61
2023/06/27 04:22:08;;;;;;;1.60;1.60;;;;;;;19.07;95.17;96781.50;4986393;28;20068;-60
2023/06/27 04:24:34;;;;;;;1.88;1.88;;;;;;;19.28;94.95;96803.56;4986839;28;20050;-61
2023/06/27 04:27:01;;;;;;;1.70;1.70;;;;;;;19.45;93.78;96803.22;4986387;28;20058;-60
2023/06/27 04:29:28;;;;;;;1.70;1.70;;;;;;;19.48;93.32;96807.94;4986840;28;20062;-60
2023/06/27 04:31:54;;;;;;;1.60;1.60;;;;;;;19.70;93.64;96796.22;4984495;28;20060;-61
2023/06/27 04:34:21;;;;;;;1.70;1.70;;;;;;;19.85;91.92;96798.28;4986181;28;20081;-62
2023/06/27 04:36:49;;;;;;;1.80;1.80;;;;;;;20.01;90.90;96800.34;4987555;28;20050;-60
2023/06/27 04:39:15;;;;;;;1.70;1.70;;;;;;;20.21;89.59;96809.50;5020670;28;20050;-60
2023/06/27 04:41:42;;;;;;;1.80;1.80;;;;;;;20.25;89.02;96813.03;5005731;28;20059;-60
2023/06/27 04:44:09;;;;;;;2.00;2.00;;;;;;;20.20;86.94;96779.81;5005719;28;20050;-60
2023/06/27 04:46:36;;;;;;;1.80;1.80;;;;;;;20.06;87.83;96794.19;5004012;28;20053;-61
2023/06/27 04:49:03;;;;;;;1.98;1.98;;;;;;;20.49;87.22;96808.78;5005842;28;20434;-60
2023/06/27 04:51:30;;;;;;;1.83;1.83;;;;;;;19.91;91.03;96818.22;5005430;28;20469;-60
2023/06/27 04:53:56;;;;;;;2.10;2.10;;;;;;;20.05;90.54;96817.91;5005539;28;20151;-60
2023/06/27 04:56:23;;;;;;;2.03;2.03;;;;;;;20.40;89.12;96822.69;5004729;28;20049;-61
2023/06/27 04:58:51;;;;;;;1.85;1.85;;;;;;;20.67;88.03;96820.41;5019691;28;20513;-60
2023/06/27 05:01:18;;;;;;;1.92;1.92;;;;;;;20.80;87.66;96824.84;5003378;28;20053;-61
2023/06/27 05:03:46;;;;;;;1.80;1.80;;;;;;;20.99;87.36;96823.19;5005553;28;20065;-61
2023/06/27 05:06:12;;;;;;;1.98;1.98;;;;;;;20.81;87.52;96774.97;5005125;28;20084;-60
2023/06/27 05:08:40;;;;;;;2.15;2.15;;;;;;;21.34;86.32;96819.34;5005441;28;20132;-60
2023/06/27 05:11:06;;;;;;;2.20;2.20;;;;;;;21.10;85.69;96764.53;5005232;28;20148;-60
2023/06/27 05:13:33;;;;;;;2.35;2.30;;;;;;;21.64;84.38;96824.50;5004849;28;20049;-61
2023/06/27 05:15:59;;;;;;;2.35;2.28;;;;;;;21.45;84.31;96783.19;5004795;28;20054;-60
2023/06/27 05:18:26;;;;;;;2.30;2.30;;;;;;;21.75;84.72;96819.38;5003100;28;20065;-60
2023/06/27 05:20:54;;;;;;;2.45;2.35;;;;;;;21.79;83.17;96811.59;5002898;28;20045;-60
2023/06/27 05:23:21;;;;;;;2.20;2.20;;;;;;;22.05;83.22;96816.00;5018075;28;20076;-61
2023/06/27 05:25:49;;;;;;;2.25;2.25;;;;;;;22.17;83.40;96809.59;5003016;28;20476;-61
2023/06/27 05:28:15;;;;;;;2.47;2.38;;;;;;;22.40;82.37;96817.69;5003116;28;20104;-60
2023/06/27 05:30:42;;;;;;;2.50;2.40;;;;;;;22.57;80.90;96815.56;5003197;28;20061;-60
2023/06/27 05:33:09;;;;;;;2.35;2.30;;;;;;;22.73;80.71;96811.78;5018821;28;20050;-61
2023/06/27 05:35:36;;;;;;;2.80;2.70;;;;;;;22.86;79.70;96809.72;5004854;28;20058;-60
2023/06/27 05:38:03;;;;;;;2.40;2.33;;;;;;;23.02;78.94;96829.31;5011491;28;20049;-62
2023/06/27 05:40:29;;;;;;;2.60;2.50;;;;;;;23.20;79.05;96815.34;5004741;28;20045;-61
2023/06/27 05:42:56;;;;;;;2.60;2.50;;;;;;;23.45;77.86;96823.75;5004819;28;20084;-60
2023/06/27 05:45:23;;;;;;;2.88;2.78;;;;;;;23.54;76.31;96816.13;5003922;28;20056;-61
2023/06/27 05:47:49;;;;;;;2.97;2.88;;;;;;;23.38;75.36;96775.94;5019356;28;20062;-61
2023/06/27 05:50:16;;;;;;;3.03;2.92;;;;;;;23.75;75.63;96817.34;5005089;28;20060;-63
2023/06/27 05:52:43;;;;;;;3.03;2.92;;;;;;;23.83;74.76;96818.66;5004187;28;20048;-60
2023/06/27 05:55:10;;;;;;;3.00;2.90;;;;;;;23.93;74.51;96814.63;5019666;28;20441;-61
2023/06/27 05:57:37;;;;;;;3.25;3.15;;;;;;;24.00;73.31;96807.91;5004626;28;20124;-60
2023/06/27 06:00:10;;;;;;;3.10;3.00;;;;;;;24.09;73.76;96810.81;5019709;28;20053;-60
2023/06/27 06:02:37;;;;;;;3.45;3.35;;;;;;;24.32;71.89;96818.75;5019115;28;20061;-61
2023/06/27 06:05:07;;;;;;;3.15;3.05;;;;;;;24.35;71.66;96807.28;5004696;28;20120;-61
2023/06/27 06:07:34;;;;;;;3.20;3.10;;;;;;;24.49;69.30;96806.69;5018898;28;20053;-61
2023/06/27 06:10:01;;;;;;;3.30;3.20;;;;;;;24.61;69.60;96819.16;5004619;28;20132;-62
2023/06/27 06:12:28;;;;;;;3.60;3.50;;;;;;;24.76;67.87;96814.50;5004220;28;20061;-60
2023/06/27 06:14:55;;;;;;;3.30;3.20;;;;;;;24.96;68.22;96824.13;5004476;28;20054;-61
2023/06/27 06:17:21;;;;;;;2.97;2.88;;;;;;;25.07;67.35;96821.63;5019442;28;20056;-60
2023/06/27 06:19:48;;;;;;;3.42;3.33;;;;;;;24.28;65.78;96806.78;5004145;28;20062;-61
2023/06/27 06:22:15;;;;;;;3.58;3.47;;;;;;;25.49;64.49;96827.50;5004249;28;20062;-61
2023/06/27 06:24:41;;;;;;;3.58;3.47;;;;;;;25.67;64.13;96815.34;5003827;28;20575;-62
2023/06/27 06:27:08;;;;;;;3.42;3.33;;;;;;;24.98;62.78;96696.91;5004156;28;20050;-61
2023/06/27 06:29:35;;;;;;;3.50;3.40;;;;;;;25.94;62.87;96813.22;5004503;28;20080;-61
2023/06/27 06:32:02;;;;;;;3.72;3.63;;;;;;;26.27;61.61;96818.97;5004107;28;20053;-60
2023/06/27 06:34:29;;;;;;;3.75;3.65;;;;;;;26.55;60.99;96821.22;5003876;28;20058;-60
2023/06/27 06:36:56;;;;;;;3.85;3.75;;;;;;;26.45;58.89;96779.91;5002811;28;20054;-59
2023/06/27 06:39:22;;;;;;;3.63;3.53;;;;;;;26.88;58.82;96818.38;5003527;28;20050;-60
2023/06/27 06:41:49;;;;;;;3.78;3.67;;;;;;;26.96;57.29;96813.91;5003103;28;20057;-60
2023/06/27 06:44:16;;;;;;;3.80;3.70;;;;;;;26.83;56.68;96816.19;5003635;28;20046;-59
2023/06/27 06:46:43;;;;;;;3.50;3.40;;;;;;;26.29;57.23;96739.75;5003210;28;20058;-61
2023/06/27 06:49:10;;;;;;;3.78;3.67;;;;;;;26.81;57.39;96807.34;5003391;28;20410;-61
2023/06/27 06:51:37;;;;;;;3.83;3.72;;;;;;;26.93;57.58;96808.38;5002486;28;20057;-61
2023/06/27 06:54:03;;;;;;;3.95;3.85;;;;;;;26.93;57.85;96808.38;5015382;28;20054;-62
2023/06/27 06:56:30;;;;;;;3.58;3.47;;;;;;;26.84;52.49;96772.28;4986717;28;20046;-60
2023/06/27 06:58:57;;;;;;;4.40;4.30;;;;;;;26.80;53.36;96771.66;4988347;28;20047;-62
2023/06/27 07:01:23;;;;;;;3.85;3.75;;;;;;;27.24;52.50;96806.72;5002691;28;20054;-60
2023/06/27 07:03:50;;;;;;;3.97;3.88;;;;;;;27.27;51.24;96800.09;4987995;28;20093;-60
2023/06/27 07:06:17;;;;;;;4.07;3.97;;;;;;;27.54;51.34;96807.59;4987862;28;20050;-60
2023/06/27 07:08:43;;;;;;;4.03;3.92;;;;;;;27.88;50.69;96799.22;4988204;28;20085;-62
2023/06/27 07:11:10;;;;;;;3.80;3.70;;;;;;;27.50;50.89;96799.28;4987449;28;20057;-60
2023/06/27 07:13:37;;;;;;;4.10;4.00;;;;;;;26.82;52.55;96802.47;4987522;28;20051;-61
2023/06/27 07:16:04;;;;;;;3.90;3.80;;;;;;;27.34;52.75;96798.94;4987720;28;20436;-60
2023/06/27 07:18:31;;;;;;;4.22;4.13;;;;;;;27.40;52.19;96792.09;4987800;28;20050;-59
2023/06/27 07:20:57;;;;;;;4.30;4.20;;;;;;;27.74;52.45;96782.88;4987411;28;20065;-60
2023/06/27 07:23:24;;;;;;;4.05;3.95;;;;;;;27.12;53.27;96685.47;4986084;28;20089;-60
2023/06/27 07:25:51;;;;;;;3.92;3.83;;;;;;;27.90;52.44;96785.28;4987360;28;20050;-60
2023/06/27 07:28:17;;;;;;;3.95;3.85;;;;;;;27.74;52.21;96754.41;4987287;28;20445;-61
2023/06/27 07:30:45;;;;;;;4.38;4.28;;;;;;;28.00;52.47;96778.22;5002266;28;20053;-60
2023/06/27 07:33:12;;;;;;;4.53;4.43;;;;;;;27.66;51.64;96696.31;4987212;28;20046;-60
2023/06/27 07:35:42;;;;;;;4.40;4.30;;;;;;;27.86;52.59;96778.97;5001827;28;20057;-62
2023/06/27 07:38:09;;;;;;;4.50;4.40;;;;;;;27.39;53.19;96779.13;4995064;28;20092;-59
2023/06/27 07:40:35;;;;;;;4.15;4.05;;;;;;;27.89;51.31;96783.72;5021630;28;20066;-59
2023/06/27 07:43:02;;;;;;;4.10;4.00;;;;;;;28.25;51.33;96781.72;5006259;28;20599;-60
2023/06/27 07:45:29;;;;;;;3.55;3.45;;;;;;;27.66;51.70;96645.06;5021484;28;20050;-61
2023/06/27 07:47:56;;;;;;;4.15;4.05;;;;;;;28.72;50.52;96781.44;5005070;28;20096;-60
2023/06/27 07:50:23;;;;;;;4.20;4.10;;;;;;;28.69;49.29;96728.25;5007287;28;20058;-60
2023/06/27 07:52:50;;;;;;;4.43;4.32;;;;;;;28.91;48.35;96777.03;5021639;28;20136;-60
2023/06/27 07:55:17;;;;;;;3.90;3.80;;;;;;;28.96;48.12;96774.22;5006811;28;20049;-60
2023/06/27 07:57:43;;;;;;;4.05;3.95;;;;;;;28.81;49.40;96778.44;5007151;28;20046;-60
2023/06/27 08:00:11;;;;;;;3.90;3.80;;;;;;;28.50;50.38;96775.41;5007140;28;20436;-61
2023/06/27 08:02:38;;;;;;;4.28;4.18;;;;;;;28.61;50.75;96764.16;5021142;28;20483;-60
2023/06/27 08:05:06;;;;;;;4.20;4.10;;;;;;;28.81;48.83;96773.53;5006663;28;20050;-61
2023/06/27 08:07:33;;;;;;;4.10;4.00;;;;;;;28.88;48.28;96772.31;5005549;28;20151;-60
2023/06/27 08:10:00;;;;;;;4.20;4.10;;;;;;;28.79;49.05;96772.44;5021403;28;20500;-60
2023/06/27 08:12:27;;;;;;;3.70;3.60;;;;;;;28.48;49.17;96783.66;5006282;28;20554;-60
2023/06/27 08:14:53;;;;;;;3.97;3.88;;;;;;;28.34;48.82;96736.00;5006218;28;20052;-61
2023/06/27 08:17:20;;;;;;;3.90;3.80;;;;;;;28.78;49.15;96773.72;5004485;28;20046;-61
2023/06/27 08:19:47;;;;;;;4.20;4.10;;;;;;;28.21;49.78;96738.38;5006437;28;20076;-60
2023/06/27 08:22:14;;;;;;;4.20;4.10;;;;;;;28.69;49.60;96776.72;5006027;28;20064;-59
2023/06/27 08:24:41;;;;;;;4.07;3.97;;;;;;;28.73;49.20;96743.06;5006016;28;20050;-59
2023/06/27 08:27:08;;;;;;;4.10;4.00;;;;;;;29.04;48.48;96774.59;5006219;28;20058;-60
2023/06/27 08:29:34;;;;;;;4.18;4.07;;;;;;;29.14;46.71;96774.00;5020829;28;20080;-62
2023/06/27 08:32:01;;;;;;;3.90;3.80;;;;;;;27.64;47.64;96533.78;5005797;28;20056;-61
2023/06/27 08:34:33;;;;;;;4.20;4.10;;;;;;;29.36;47.44;96767.75;5006016;28;20525;-61
2023/06/27 08:37:00;;;;;;;4.10;4.00;;;;;;;29.23;46.87;96735.94;5005887;28;20081;-60
2023/06/27 08:39:28;;;;;;;3.85;3.75;;;;;;;29.76;46.37;96767.72;5005756;28;20045;-62
2023/06/27 08:41:57;;;;;;;4.40;4.30;;;;;;;29.93;45.74;96765.78;5005516;28;20070;-63
2023/06/27 08:44:24;;;;;;;4.25;4.15;;;;;;;29.03;47.74;96768.13;5005655;28;20054;-63
2023/06/27 08:46:52;;;;;;;3.83;3.72;;;;;;;29.53;46.85;96765.88;5004965;28;20116;-62
2023/06/27 08:49:26;;;;;;;4.18;4.07;;;;;;;29.52;46.25;96767.16;5006113;28;20062;-61
2023/06/27 08:51:56;;;;;;;4.38;4.28;;;;;;;29.58;46.16;96768.00;5005003;28;20531;-60
2023/06/27 08:54:51;;;;;;;4.35;4.25;;;;;;;29.85;44.80;96764.66;5005878;28;20073;-61
2023/06/27 08:57:19;;;;;;;4.63;4.53;;;;;;;29.93;44.52;96760.06;5003788;28;20425;-61
2023/06/27 08:59:48;;;;;;;4.65;4.55;;;;;;;30.01;44.56;96755.47;5005433;28;20062;-61
2023/06/27 09:02:16;;;;;;;4.30;4.20;;;;;;;29.93;44.48;96725.78;5005221;28;20066;-62
2023/06/27 09:04:45;;;;;;;4.60;4.50;;;;;;;30.31;44.96;96791.09;5005023;28;20057;-61
2023/06/27 09:07:12;;;;;;;4.43;4.32;;;;;;;30.62;45.42;96768.16;5019590;28;20056;-60
2023/06/27 09:09:40;;;;;;;3.92;3.83;;;;;;;30.43;43.76;96706.19;5005041;28;20066;-61
2023/06/27 09:12:07;;;;;;;4.40;4.30;;;;;;;30.72;43.64;96757.31;5019672;28;20050;-60
2023/06/27 09:14:34;;;;;;;4.15;4.05;;;;;;;30.68;44.23;96726.06;5019960;28;20052;-59
2023/06/27 09:17:03;;;;;;;4.60;4.50;;;;;;;30.98;43.78;96751.50;5003386;28;20094;-59
2023/06/27 09:19:31;;;;;;;4.72;4.63;;;;;;;31.75;42.20;96743.19;5004998;28;20479;-60
2023/06/27 09:21:58;;;;;;;4.70;4.60;;;;;;;31.23;41.31;96681.84;5004671;28;20073;-60
2023/06/27 09:24:24;;;;;;;4.30;4.20;;;;;;;29.78;42.76;96470.97;5005242;28;20061;-62
2023/06/27 09:26:51;;;;;;;4.50;4.40;;;;;;;31.86;40.82;96746.09;5004892;28;20054;-59
2023/06/27 09:29:19;;;;;;;4.20;4.10;;;;;;;31.67;42.11;96747.84;5005299;28;20050;-60
2023/06/27 09:31:46;;;;;;;4.60;4.50;;;;;;;30.83;42.42;96752.47;5019969;28;20066;-60
2023/06/27 09:34:13;;;;;;;4.40;4.30;;;;;;;29.53;45.44;96754.44;5005101;28;20278;-60
2023/06/27 09:36:40;;;;;;;4.35;4.25;;;;;;;30.30;44.39;96743.78;5004829;28;20046;-60
2023/06/27 09:39:12;;;;;;;4.32;4.22;;;;;;;30.67;44.25;96747.41;5014914;28;20636;-59
2023/06/27 09:41:50;;;;;;;4.20;4.10;;;;;;;30.64;43.47;96739.84;5004512;28;20054;-59
2023/06/27 09:44:24;;;;;;;4.10;4.00;;;;;;;30.70;45.47;96754.97;5004690;28;20057;-61
2023/06/27 09:46:53;;;;;;;5.18;5.07;;;;;;;30.72;44.41;96735.22;5004098;28;20453;-59
2023/06/27 09:49:22;;;;;;;4.10;4.00;;;;;;;30.82;46.35;96745.19;5004627;28;20046;-59
2023/06/27 09:51:50;;;;;;;4.75;4.65;;;;;;;31.53;44.52;96728.81;5004677;28;20053;-60
2023/06/27 09:54:20;;;;;;;4.55;4.45;;;;;;;32.04;44.00;96745.59;5019584;28;20076;-60
2023/06/27 09:56:51;;;;;;;4.60;4.50;;;;;;;32.25;42.27;96726.81;5004393;28;20112;-61
2023/06/27 09:59:22;;;;;;;4.57;4.47;;;;;;;32.32;41.85;96750.03;5004728;28;20101;-60
2023/06/27 10:02:13;;;;;;;5.07;4.97;;;;;;;32.08;44.40;96746.09;5004067;28;20520;-59
2023/06/27 10:04:40;;;;;;;4.88;4.78;;;;;;;32.13;40.89;96754.72;5019388;28;20492;-61
2023/06/27 10:07:08;;;;;;;4.45;4.35;;;;;;;31.95;42.29;96748.69;5004321;28;20049;-61
2023/06/27 10:09:37;;;;;;;4.90;4.80;;;;;;;32.02;41.93;96765.38;5004728;28;20122;-59
2023/06/27 10:12:06;;;;;;;4.22;4.13;;;;;;;31.70;41.54;96703.84;5004006;28;20046;-61
2023/06/27 10:14:34;;;;;;;4.15;4.05;;;;;;;32.02;41.42;96748.97;5004624;28;20088;-60
2023/06/27 10:17:02;;;;;;;5.13;5.03;;;;;;;31.48;42.45;96744.69;5003992;28;20442;-60
2023/06/27 10:19:34;;;;;;;4.30;4.20;;;;;;;31.47;42.32;96743.13;5004336;28;20119;-60
2023/06/27 10:22:03;;;;;;;4.18;4.07;;;;;;;31.57;42.88;96755.13;5004416;28;20060;-61
2023/06/27 10:24:30;;;;;;;4.30;4.20;;;;;;;31.83;41.37;96736.44;5004150;28;20866;-63
2023/06/27 10:26:58;;;;;;;4.65;4.55;;;;;;;31.84;41.91;96738.00;5003968;28;20057;-60
2023/06/27 10:29:31;;;;;;;4.57;4.47;;;;;;;32.07;40.90;96741.69;5002815;28;20058;-60
2023/06/27 10:31:58;;;;;;;4.60;4.50;;;;;;;32.10;41.40;96734.91;5002294;28;20131;-62
2023/06/27 10:34:25;;;;;;;4.85;4.75;;;;;;;31.72;40.67;96701.25;4988713;28;20296;-62
2023/06/27 10:36:58;;;;;;;4.57;4.47;;;;;;;32.28;39.96;96740.09;4988406;28;20088;-61
2023/06/27 10:39:26;;;;;;;;;;;;;;;32.30;40.74;96728.88;5002538;28;20046;-61
2023/06/27 10:42:06;;;;;;;5.10;5.00;;;;;;;32.38;39.25;96721.34;5022742;28;19925;-60
2023/06/27 10:44:59;;;;;;;5.05;4.95;;;;;;;32.48;39.52;96722.66;5008248;28;20061;-60
2023/06/27 10:47:34;;;;;;;5.35;5.25;;;;;;;32.82;39.15;96723.31;5007788;28;20441;-61
2023/06/27 10:50:05;;;;;;;4.85;4.75;;;;;;;33.28;38.78;96727.09;5007617;28;20061;-61
2023/06/27 10:52:32;;;;;;;5.82;5.63;;;;;;;33.58;36.79;96722.28;5022479;28;20586;-60
2023/06/27 10:55:14;;;;;;;5.25;5.15;;;;;;;33.41;38.30;96718.72;5008238;28;20517;-60
2023/06/27 10:58:11;;;;;;;5.13;5.03;;;;;;;33.91;37.19;96726.28;5007642;28;20057;-60
2023/06/27 11:00:42;;;;;;;4.88;4.78;;;;;;;33.50;36.47;96717.59;5002731;28;20064;-60
2023/06/27 11:03:09;;;;;;;4.68;4.57;;;;;;;33.09;36.51;96691.69;5007058;28;20672;-61
2023/06/27 11:05:44;;;;;;;5.78;5.57;;;;;;;33.35;36.91;96720.81;5008095;28;20313;-60
2023/06/27 11:08:13;;;;;;;5.22;5.13;;;;;;;33.08;37.23;96690.13;5022562;28;20504;-60
2023/06/27 11:10:58;;;;;;;5.20;5.10;;;;;;;33.07;36.79;96711.53;5007215;28;20057;-60
2023/06/27 11:13:29;;;;;;;5.13;5.03;;;;;;;32.62;37.11;96681.41;5007724;28;20089;-61
2023/06/27 11:15:57;;;;;;;4.40;4.30;;;;;;;32.89;37.79;96717.88;5007704;28;20262;-60
2023/06/27 11:18:27;;;;;;;5.07;4.97;;;;;;;32.96;37.99;96708.69;5007131;28;20058;-60
2023/06/27 11:20:55;;;;;;;4.80;4.70;;;;;;;33.19;37.06;96713.06;5007399;28;20797;-60
2023/06/27 11:23:23;;;;;;;4.45;4.35;;;;;;;32.74;37.82;96699.38;5007434;28;20057;-60
2023/06/27 11:25:51;;;;;;;4.50;4.40;;;;;;;32.71;38.36;96704.06;5006947;28;20064;-60
2023/06/27 11:28:21;;;;;;;5.20;5.10;;;;;;;31.61;40.25;96701.22;5007254;28;20045;-59
2023/06/27 11:30:48;;;;;;;4.78;4.68;;;;;;;31.32;41.64;96695.94;5021963;28;20060;-59
2023/06/27 11:33:16;;;;;;;4.90;4.80;;;;;;;30.87;42.84;96695.78;5006841;28;20420;-61
2023/06/27 11:35:44;;;;;;;4.65;4.55;;;;;;;31.00;43.35;96700.25;5005293;28;20583;-60
2023/06/27 11:38:11;;;;;;;4.28;4.18;;;;;;;30.93;42.74;96692.94;5006649;28;20454;-61